To NAV CANADA Home Page Login to a new session Search on AWWS site Feedback and Comments Disclaimer Vers la page française équivalente Tips FAQ What's new on the site To the Forecasts and Observations / NOTAM section To "File a Flight Plan" website Publications and other links Update of the User's profile FIC Telephone Numbers My Weather Data Folder Route Weather Data Regional Weather Data Local Weather Data To the Forecasts and Observations / NOTAM section
Request Generated 07/03/2015 at 17:17:15 UTC . Weather information available at that time is displayed.

METAR/TAF

STONY RAPIDS/SK    (show WxCam)

METAR CYSF 031700Z AUTO 10007KT 2 1/2SM BR CLR 16/14 A2967 RMK PRESFR
PCPN 0.5MM PAST HR SLP052 DENSITY ALT 1400FT=
SPECI CYSF 031634Z AUTO 07006KT 2 1/2SM BR FEW041 SCT060 16/14 A2966
RMK PRESFR PCPN 0.5MM PAST HR SLP050 DENSITY ALT 1300FT=
SPECI CYSF 031621Z AUTO 09008KT 2 1/2SM -RA BR BKN041 BKN060 15/14
A2966 RMK LTNG DIST SE PRESFR PCPN 0.5MM PAST HR SLP051 DENSITY ALT
1300FT=
METAR CYSF 031600Z AUTO 11009KT 040V120 2SM RA BR BKN047 OVC055 15/14
A2968 RMK LTNG DIST E PRESRR PCPN 2.5MM PAST HR SLP057 DENSITY ALT
1300FT=
SPECI CYSF 031555Z AUTO 07006KT 040V120 2SM RA BR OVC050 15/14 A2968
RMK LTNG DIST E SE PRESRR PCPN 2.2MM PAST HR SLP058 DENSITY ALT
1300FT=
SPECI CYSF 031549Z AUTO 09004KT 050V120 2 1/2SM -RA BR BKN050 15/14
A2969 RMK LTNG DIST E SE PRESRR PCPN 1.8MM PAST HR SLP059 DENSITY
ALT 1300FT=
SPECI CYSF 031536Z AUTO 06007KT 2 1/4SM RA BR 15/14 A2967 RMK PCPN
1.5MM PAST HR CLD MISG SLP053 DENSITY ALT 1300FT=
SPECI CYSF 031532Z AUTO 06007KT 2 1/2SM RA BR 15/14 A2967 RMK PCPN
1.5MM PAST HR CLD MISG SLP054 DENSITY ALT 1300FT=
SPECI CYSF 031520Z AUTO 09009KT 3SM -RA BR 15/14 A2966 RMK LTNG DIST
SE PCPN 1.0MM PAST HR CLD MISG SLP051 DENSITY ALT 1300FT=
METAR CYSF 031500Z AUTO /////KT 15/14 A2967 RMK LTNG DIST W NW PRESFR
PCPN 3.8MM PAST HR CLD MISG WX MISG VIS MISG PCPN MISG ICG MISG
SLP053 DENSITY ALT 1300FT=

TAF AMD CYSF 031515Z 0315/0324 FCST NOT AVBL DUE SENSORS INOP
RMK FCST BASED ON AUTO OBS. NXT FCST BY 031800Z=
Your time UTC time
Weather data provided by Environment Canada and NAV CANADA